Mc Cook, Nebraska
Current Conditions -  °F | °C
As of 3:53 PM on Tuesday 21 Oct 2014 (Local Time) from KMCK Reporting Station
Clear Clear  
Wind Chill: 80°   Ceiling: Unl
Heat Index: 80°   Visibility: 10mi
Dew Point: 54°   Wind: 18mph
Humidity: 40%   Direction: 170°S
Pressure: 29.93"   Gusts: 29mph
Location:  40.1761°N, 100.646°W
Report Text: KMCK 212053Z AUTO 17016G25KT 10SM CLR 27/12 A2993 RMK AO2 PK WND 16026/2030 SLP123 T02670122 56027
Loading
Personal Weather Stations






























Interactive Weather Map
Tropical Storm Tracking
New forecast layout! Learn more

10-Day Weather Forecast

Advertisements
Track Severe Weather on mobile